sensor_id;sensor_type;location;lat;lon;timestamp;temperature;humidity
53782;DHT22;39692;53.114;7.060;2023-02-08T07:54:06;6.50;99.90
53782;DHT22;39692;53.114;7.060;2023-02-08T07:56:31;7.30;99.90
53782;DHT22;39692;53.114;7.060;2023-02-08T07:58:57;8.10;99.90
53782;DHT22;39692;53.114;7.060;2023-02-08T08:01:23;8.80;99.90
53782;DHT22;39692;53.114;7.060;2023-02-08T08:03:49;9.50;95.40
53782;DHT22;39692;53.114;7.060;2023-02-08T08:06:17;10.20;92.60
53782;DHT22;39692;53.114;7.060;2023-02-08T08:08:43;10.60;94.70
53782;DHT22;39692;53.114;7.060;2023-02-08T08:11:12;10.90;96.50
53782;DHT22;39692;53.114;7.060;2023-02-08T08:13:38;11.20;88.00
53782;DHT22;39692;53.114;7.060;2023-02-08T08:16:04;12.10;81.10
53782;DHT22;39692;53.114;7.060;2023-02-08T08:18:30;13.00;76.50
53782;DHT22;39692;53.114;7.060;2023-02-08T08:20:56;13.80;74.90
53782;DHT22;39692;53.114;7.060;2023-02-08T08:23:22;14.30;67.30
53782;DHT22;39692;53.114;7.060;2023-02-08T08:25:48;14.80;63.60
53782;DHT22;39692;53.114;7.060;2023-02-08T08:28:15;15.20;59.50
53782;DHT22;39692;53.114;7.060;2023-02-08T08:30:44;15.50;59.00
53782;DHT22;39692;53.114;7.060;2023-02-08T08:33:11;15.80;56.70
53782;DHT22;39692;53.114;7.060;2023-02-08T08:35:39;16.20;54.40
53782;DHT22;39692;53.114;7.060;2023-02-08T08:38:04;16.30;54.20
53782;DHT22;39692;53.114;7.060;2023-02-08T08:40:30;16.30;53.10
53782;DHT22;39692;53.114;7.060;2023-02-08T08:42:56;16.50;52.20
53782;DHT22;39692;53.114;7.060;2023-02-08T08:45:22;16.70;51.70
53782;DHT22;39692;53.114;7.060;2023-02-08T08:47:48;17.20;51.00
53782;DHT22;39692;53.114;7.060;2023-02-08T08:50:14;17.80;50.00
53782;DHT22;39692;53.114;7.060;2023-02-08T08:52:39;18.30;48.80
53782;DHT22;39692;53.114;7.060;2023-02-08T08:55:07;18.70;47.90
53782;DHT22;39692;53.114;7.060;2023-02-08T08:57:33;19.00;47.10
53782;DHT22;39692;53.114;7.060;2023-02-08T08:59:59;19.10;46.50
53782;DHT22;39692;53.114;7.060;2023-02-08T09:02:24;19.10;46.40
53782;DHT22;39692;53.114;7.060;2023-02-08T09:04:50;19.00;46.30
53782;DHT22;39692;53.114;7.060;2023-02-08T09:07:16;18.80;46.10
53782;DHT22;39692;53.114;7.060;2023-02-08T09:09:42;18.50;45.90
53782;DHT22;39692;53.114;7.060;2023-02-08T09:12:15;18.10;46.40
53782;DHT22;39692;53.114;7.060;2023-02-08T09:14:41;17.60;74.10
53782;DHT22;39692;53.114;7.060;2023-02-08T09:17:09;17.60;77.90
53782;DHT22;39692;53.114;7.060;2023-02-08T09:19:35;16.90;77.60
53782;DHT22;39692;53.114;7.060;2023-02-08T09:22:01;16.50;81.00
53782;DHT22;39692;53.114;7.060;2023-02-08T09:24:26;16.20;81.80
53782;DHT22;39692;53.114;7.060;2023-02-08T09:26:52;16.20;81.50
53782;DHT22;39692;53.114;7.060;2023-02-08T09:29:18;16.20;82.20
53782;DHT22;39692;53.114;7.060;2023-02-08T09:31:43;16.70;79.60
53782;DHT22;39692;53.114;7.060;2023-02-08T09:34:09;17.40;78.50
53782;DHT22;39692;53.114;7.060;2023-02-08T09:36:37;16.70;80.80
53782;DHT22;39692;53.114;7.060;2023-02-08T09:39:13;15.90;82.10
53782;DHT22;39692;53.114;7.060;2023-02-08T09:41:48;15.50;80.30
53782;DHT22;39692;53.114;7.060;2023-02-08T09:50:59;16.40;46.20
53782;DHT22;39692;53.114;7.060;2023-02-08T09:53:48;16.00;47.00
53782;DHT22;39692;53.114;7.060;2023-02-08T09:56:18;14.70;48.40
53782;DHT22;39692;53.114;7.060;2023-02-08T09:58:49;14.00;53.50
53782;DHT22;39692;53.114;7.060;2023-02-08T10:26:57;12.10;56.10
53782;DHT22;39692;53.114;7.060;2023-02-08T10:34:56;13.50;61.00
53782;DHT22;39692;53.114;7.060;2023-02-08T10:37:31;13.60;54.10
53782;DHT22;39692;53.114;7.060;2023-02-08T10:45:30;13.70;69.40
53782;DHT22;39692;53.114;7.060;2023-02-08T10:48:04;13.50;53.60
53782;DHT22;39692;53.114;7.060;2023-02-08T10:50:36;14.20;52.40
53782;DHT22;39692;53.114;7.060;2023-02-08T10:55:31;15.00;54.90
53782;DHT22;39692;53.114;7.060;2023-02-08T11:08:24;14.70;84.60
53782;DHT22;39692;53.114;7.060;2023-02-08T11:13:39;16.10;71.60
53782;DHT22;39692;53.114;7.060;2023-02-08T11:18:46;16.70;58.50
53782;DHT22;39692;53.114;7.060;2023-02-08T11:24:22;16.90;62.90
53782;DHT22;39692;53.114;7.060;2023-02-08T11:26:45;17.50;65.90
53782;DHT22;39692;53.114;7.060;2023-02-08T11:31:37;19.40;61.60
53782;DHT22;39692;53.114;7.060;2023-02-08T11:34:10;20.40;52.70
53782;DHT22;39692;53.114;7.060;2023-02-08T11:36:42;21.20;50.90
53782;DHT22;39692;53.114;7.060;2023-02-08T11:39:27;21.80;49.60
53782;DHT22;39692;53.114;7.060;2023-02-08T11:41:56;22.40;47.60
53782;DHT22;39692;53.114;7.060;2023-02-08T11:44:31;22.80;48.30
53782;DHT22;39692;53.114;7.060;2023-02-08T11:47:03;23.40;51.00
53782;DHT22;39692;53.114;7.060;2023-02-08T11:49:41;23.80;53.10
53782;DHT22;39692;53.114;7.060;2023-02-08T11:54:47;24.20;49.20
53782;DHT22;39692;53.114;7.060;2023-02-08T11:57:22;24.50;47.00
53782;DHT22;39692;53.114;7.060;2023-02-08T11:59:50;24.50;44.20
53782;DHT22;39692;53.114;7.060;2023-02-08T12:02:36;24.80;55.70
53782;DHT22;39692;53.114;7.060;2023-02-08T12:05:12;25.10;51.80
53782;DHT22;39692;53.114;7.060;2023-02-08T12:13:53;25.60;44.30
53782;DHT22;39692;53.114;7.060;2023-02-08T12:24:12;25.40;43.40
53782;DHT22;39692;53.114;7.060;2023-02-08T12:32:23;25.40;45.00
53782;DHT22;39692;53.114;7.060;2023-02-08T12:35:09;25.20;45.00
53782;DHT22;39692;53.114;7.060;2023-02-08T13:33:44;20.50;65.60
53782;DHT22;39692;53.114;7.060;2023-02-08T13:36:32;20.90;66.10
53782;DHT22;39692;53.114;7.060;2023-02-08T13:39:00;20.50;62.10
53782;DHT22;39692;53.114;7.060;2023-02-08T13:41:27;20.20;59.70
53782;DHT22;39692;53.114;7.060;2023-02-08T14:01:34;13.90;85.00
